sensor_id;sensor_type;location;lat;lon;timestamp;P1;durP1;ratioP1;P2;durP2;ratioP2
9007;SDS011;62813;51.424;6.762;2023-06-10T00:00:08;6.97;;;6.27;;
9007;SDS011;62813;51.424;6.762;2023-06-10T00:02:38;6.83;;;5.80;;
9007;SDS011;62813;51.424;6.762;2023-06-10T00:05:06;8.47;;;6.70;;
9007;SDS011;62813;51.424;6.762;2023-06-10T00:07:34;7.30;;;6.60;;
9007;SDS011;62813;51.424;6.762;2023-06-10T00:10:04;7.50;;;6.80;;
9007;SDS011;62813;51.424;6.762;2023-06-10T00:12:32;7.30;;;6.50;;
9007;SDS011;62813;51.424;6.762;2023-06-10T00:15:06;7.17;;;6.47;;
9007;SDS011;62813;51.424;6.762;2023-06-10T00:17:33;6.67;;;5.97;;
9007;SDS011;62813;51.424;6.762;2023-06-10T00:20:00;9.33;;;6.80;;
9007;SDS011;62813;51.424;6.762;2023-06-10T00:22:31;6.90;;;6.20;;
9007;SDS011;62813;51.424;6.762;2023-06-10T00:24:58;7.10;;;6.40;;
9007;SDS011;62813;51.424;6.762;2023-06-10T00:27:25;8.70;;;6.37;;
9007;SDS011;62813;51.424;6.762;2023-06-10T00:29:57;7.03;;;6.33;;
9007;SDS011;62813;51.424;6.762;2023-06-10T00:32:24;7.83;;;6.73;;
9007;SDS011;62813;51.424;6.762;2023-06-10T00:34:50;7.53;;;6.83;;
9007;SDS011;62813;51.424;6.762;2023-06-10T00:37:17;7.60;;;7.00;;
9007;SDS011;62813;51.424;6.762;2023-06-10T00:39:44;8.00;;;6.77;;
9007;SDS011;62813;51.424;6.762;2023-06-10T00:42:10;8.80;;;6.67;;
9007;SDS011;62813;51.424;6.762;2023-06-10T00:44:37;7.07;;;6.37;;
9007;SDS011;62813;51.424;6.762;2023-06-10T00:47:04;7.57;;;6.87;;
9007;SDS011;62813;51.424;6.762;2023-06-10T00:49:31;8.77;;;6.27;;
9007;SDS011;62813;51.424;6.762;2023-06-10T00:51:58;7.93;;;6.70;;
9007;SDS011;62813;51.424;6.762;2023-06-10T00:54:25;6.93;;;6.33;;
9007;SDS011;62813;51.424;6.762;2023-06-10T00:56:53;7.30;;;6.60;;
9007;SDS011;62813;51.424;6.762;2023-06-10T00:59:21;7.63;;;6.70;;
9007;SDS011;62813;51.424;6.762;2023-06-10T01:04:16;6.90;;;6.20;;
9007;SDS011;62813;51.424;6.762;2023-06-10T01:07:05;7.30;;;6.60;;
9007;SDS011;62813;51.424;6.762;2023-06-10T01:09:43;8.23;;;6.60;;
9007;SDS011;62813;51.424;6.762;2023-06-10T01:12:15;8.03;;;7.23;;
9007;SDS011;62813;51.424;6.762;2023-06-10T01:14:45;8.60;;;7.57;;
9007;SDS011;62813;51.424;6.762;2023-06-10T01:17:12;7.70;;;6.80;;
9007;SDS011;62813;51.424;6.762;2023-06-10T01:19:43;10.30;;;7.00;;
9007;SDS011;62813;51.424;6.762;2023-06-10T01:22:10;10.20;;;7.23;;
9007;SDS011;62813;51.424;6.762;2023-06-10T01:24:42;7.10;;;6.40;;
9007;SDS011;62813;51.424;6.762;2023-06-10T01:27:11;8.67;;;7.57;;
9007;SDS011;62813;51.424;6.762;2023-06-10T01:30:22;7.93;;;7.07;;
9007;SDS011;62813;51.424;6.762;2023-06-10T01:32:32;7.13;;;6.43;;
9007;SDS011;62813;51.424;6.762;2023-06-10T01:35:01;8.87;;;7.63;;
9007;SDS011;62813;51.424;6.762;2023-06-10T01:37:28;6.97;;;6.37;;
9007;SDS011;62813;51.424;6.762;2023-06-10T01:39:57;7.63;;;6.83;;
9007;SDS011;62813;51.424;6.762;2023-06-10T01:42:24;7.37;;;6.67;;
9007;SDS011;62813;51.424;6.762;2023-06-10T01:44:51;9.47;;;6.93;;
9007;SDS011;62813;51.424;6.762;2023-06-10T01:47:18;8.53;;;7.30;;
9007;SDS011;62813;51.424;6.762;2023-06-10T01:49:44;7.73;;;7.03;;
9007;SDS011;62813;51.424;6.762;2023-06-10T01:52:11;7.33;;;6.63;;
9007;SDS011;62813;51.424;6.762;2023-06-10T01:54:37;7.90;;;6.20;;
9007;SDS011;62813;51.424;6.762;2023-06-10T01:57:04;8.10;;;7.30;;
9007;SDS011;62813;51.424;6.762;2023-06-10T01:59:32;8.27;;;7.10;;
9007;SDS011;62813;51.424;6.762;2023-06-10T02:01:59;7.23;;;6.43;;
9007;SDS011;62813;51.424;6.762;2023-06-10T02:04:26;8.03;;;7.23;;
9007;SDS011;62813;51.424;6.762;2023-06-10T02:06:52;9.83;;;7.23;;
9007;SDS011;62813;51.424;6.762;2023-06-10T02:09:19;9.83;;;7.00;;
9007;SDS011;62813;51.424;6.762;2023-06-10T02:11:46;7.90;;;7.10;;
9007;SDS011;62813;51.424;6.762;2023-06-10T02:14:13;9.67;;;7.40;;
9007;SDS011;62813;51.424;6.762;2023-06-10T02:16:39;8.67;;;7.43;;
9007;SDS011;62813;51.424;6.762;2023-06-10T02:19:06;8.33;;;7.50;;
9007;SDS011;62813;51.424;6.762;2023-06-10T02:21:33;9.30;;;7.83;;
9007;SDS011;62813;51.424;6.762;2023-06-10T02:24:00;8.00;;;7.20;;
9007;SDS011;62813;51.424;6.762;2023-06-10T02:26:27;11.90;;;7.10;;
9007;SDS011;62813;51.424;6.762;2023-06-10T02:28:54;8.10;;;7.30;;
9007;SDS011;62813;51.424;6.762;2023-06-10T02:31:21;9.90;;;7.40;;
9007;SDS011;62813;51.424;6.762;2023-06-10T02:33:48;9.30;;;6.93;;
9007;SDS011;62813;51.424;6.762;2023-06-10T02:36:15;7.77;;;7.03;;
9007;SDS011;62813;51.424;6.762;2023-06-10T02:38:41;9.40;;;8.10;;
9007;SDS011;62813;51.424;6.762;2023-06-10T02:41:08;11.20;;;8.13;;
9007;SDS011;62813;51.424;6.762;2023-06-10T02:43:35;12.57;;;7.93;;
9007;SDS011;62813;51.424;6.762;2023-06-10T02:46:01;9.30;;;7.87;;
9007;SDS011;62813;51.424;6.762;2023-06-10T02:48:28;9.43;;;7.83;;
9007;SDS011;62813;51.424;6.762;2023-06-10T02:50:55;9.10;;;7.57;;
9007;SDS011;62813;51.424;6.762;2023-06-10T02:53:22;9.87;;;7.70;;
9007;SDS011;62813;51.424;6.762;2023-06-10T02:55:48;8.73;;;7.40;;
9007;SDS011;62813;51.424;6.762;2023-06-10T02:58:15;10.63;;;7.60;;
9007;SDS011;62813;51.424;6.762;2023-06-10T03:00:42;8.40;;;7.57;;
9007;SDS011;62813;51.424;6.762;2023-06-10T03:03:09;10.50;;;7.57;;
9007;SDS011;62813;51.424;6.762;2023-06-10T03:05:37;9.17;;;7.47;;
9007;SDS011;62813;51.424;6.762;2023-06-10T03:08:03;11.53;;;8.30;;
9007;SDS011;62813;51.424;6.762;2023-06-10T03:10:30;8.33;;;7.53;;
9007;SDS011;62813;51.424;6.762;2023-06-10T03:12:59;8.53;;;7.60;;
9007;SDS011;62813;51.424;6.762;2023-06-10T03:15:26;10.43;;;8.10;;
9007;SDS011;62813;51.424;6.762;2023-06-10T03:17:55;8.90;;;8.10;;
9007;SDS011;62813;51.424;6.762;2023-06-10T03:20:21;9.43;;;8.50;;
9007;SDS011;62813;51.424;6.762;2023-06-10T03:22:48;9.40;;;8.47;;
9007;SDS011;62813;51.424;6.762;2023-06-10T03:25:15;12.07;;;7.73;;
9007;SDS011;62813;51.424;6.762;2023-06-10T03:27:42;12.03;;;8.53;;
9007;SDS011;62813;51.424;6.762;2023-06-10T03:30:09;12.03;;;8.10;;
9007;SDS011;62813;51.424;6.762;2023-06-10T03:32:36;10.10;;;9.00;;
9007;SDS011;62813;51.424;6.762;2023-06-10T03:35:04;9.83;;;8.83;;
9007;SDS011;62813;51.424;6.762;2023-06-10T03:37:30;13.17;;;9.20;;
9007;SDS011;62813;51.424;6.762;2023-06-10T03:39:57;9.73;;;8.83;;
9007;SDS011;62813;51.424;6.762;2023-06-10T03:42:23;10.00;;;8.90;;
9007;SDS011;62813;51.424;6.762;2023-06-10T03:44:50;21.77;;;15.63;;
9007;SDS011;62813;51.424;6.762;2023-06-10T03:47:16;11.27;;;10.10;;
9007;SDS011;62813;51.424;6.762;2023-06-10T03:49:43;10.33;;;9.33;;
9007;SDS011;62813;51.424;6.762;2023-06-10T03:52:09;11.03;;;9.90;;
9007;SDS011;62813;51.424;6.762;2023-06-10T03:54:36;17.23;;;9.53;;
9007;SDS011;62813;51.424;6.762;2023-06-10T03:57:05;12.43;;;10.60;;
9007;SDS011;62813;51.424;6.762;2023-06-10T03:59:32;11.03;;;9.67;;
9007;SDS011;62813;51.424;6.762;2023-06-10T04:01:59;10.53;;;9.53;;
9007;SDS011;62813;51.424;6.762;2023-06-10T04:04:26;9.97;;;9.07;;
9007;SDS011;62813;51.424;6.762;2023-06-10T04:06:53;10.73;;;9.63;;
9007;SDS011;62813;51.424;6.762;2023-06-10T04:09:20;10.60;;;9.50;;
9007;SDS011;62813;51.424;6.762;2023-06-10T04:11:47;11.17;;;9.97;;
9007;SDS011;62813;51.424;6.762;2023-06-10T04:14:14;15.20;;;9.90;;
9007;SDS011;62813;51.424;6.762;2023-06-10T04:16:41;10.70;;;9.70;;
9007;SDS011;62813;51.424;6.762;2023-06-10T04:19:08;11.00;;;9.97;;
9007;SDS011;62813;51.424;6.762;2023-06-10T04:21:35;12.13;;;9.93;;
9007;SDS011;62813;51.424;6.762;2023-06-10T04:24:02;10.93;;;9.83;;
9007;SDS011;62813;51.424;6.762;2023-06-10T04:26:29;13.33;;;10.57;;
9007;SDS011;62813;51.424;6.762;2023-06-10T04:28:55;12.37;;;10.10;;
9007;SDS011;62813;51.424;6.762;2023-06-10T04:31:22;12.13;;;10.27;;
9007;SDS011;62813;51.424;6.762;2023-06-10T04:33:49;13.43;;;10.37;;
9007;SDS011;62813;51.424;6.762;2023-06-10T04:36:15;11.53;;;10.20;;
9007;SDS011;62813;51.424;6.762;2023-06-10T04:38:42;11.30;;;10.07;;
9007;SDS011;62813;51.424;6.762;2023-06-10T04:41:08;11.20;;;10.10;;
9007;SDS011;62813;51.424;6.762;2023-06-10T04:43:35;13.43;;;9.87;;
9007;SDS011;62813;51.424;6.762;2023-06-10T04:46:01;11.53;;;9.60;;
9007;SDS011;62813;51.424;6.762;2023-06-10T04:48:29;11.07;;;10.00;;
9007;SDS011;62813;51.424;6.762;2023-06-10T04:50:55;12.47;;;10.47;;
9007;SDS011;62813;51.424;6.762;2023-06-10T04:53:23;15.73;;;10.50;;
9007;SDS011;62813;51.424;6.762;2023-06-10T04:55:49;11.57;;;10.27;;
9007;SDS011;62813;51.424;6.762;2023-06-10T04:58:16;11.53;;;10.43;;
9007;SDS011;62813;51.424;6.762;2023-06-10T05:00:42;14.23;;;9.83;;
9007;SDS011;62813;51.424;6.762;2023-06-10T05:03:10;11.53;;;10.40;;
9007;SDS011;62813;51.424;6.762;2023-06-10T05:05:37;15.53;;;10.10;;
9007;SDS011;62813;51.424;6.762;2023-06-10T05:08:03;10.60;;;9.50;;
9007;SDS011;62813;51.424;6.762;2023-06-10T05:10:33;12.10;;;9.13;;
9007;SDS011;62813;51.424;6.762;2023-06-10T05:13:00;10.97;;;9.33;;
9007;SDS011;62813;51.424;6.762;2023-06-10T05:15:27;11.90;;;10.07;;
9007;SDS011;62813;51.424;6.762;2023-06-10T05:17:55;10.63;;;9.57;;
9007;SDS011;62813;51.424;6.762;2023-06-10T05:20:22;10.60;;;8.57;;
9007;SDS011;62813;51.424;6.762;2023-06-10T05:22:49;11.07;;;10.03;;
9007;SDS011;62813;51.424;6.762;2023-06-10T05:25:15;9.73;;;8.70;;
9007;SDS011;62813;51.424;6.762;2023-06-10T05:27:42;11.87;;;9.57;;
9007;SDS011;62813;51.424;6.762;2023-06-10T05:30:10;9.03;;;8.13;;
9007;SDS011;62813;51.424;6.762;2023-06-10T05:32:36;9.87;;;8.73;;
9007;SDS011;62813;51.424;6.762;2023-06-10T05:35:03;11.30;;;9.53;;
9007;SDS011;62813;51.424;6.762;2023-06-10T05:37:31;10.03;;;9.10;;
9007;SDS011;62813;51.424;6.762;2023-06-10T05:39:57;10.73;;;9.30;;
9007;SDS011;62813;51.424;6.762;2023-06-10T05:42:24;10.37;;;9.10;;
9007;SDS011;62813;51.424;6.762;2023-06-10T05:44:50;8.43;;;7.63;;
9007;SDS011;62813;51.424;6.762;2023-06-10T05:47:17;10.30;;;9.27;;
9007;SDS011;62813;51.424;6.762;2023-06-10T05:49:44;9.47;;;8.43;;
9007;SDS011;62813;51.424;6.762;2023-06-10T05:52:12;11.80;;;8.50;;
9007;SDS011;62813;51.424;6.762;2023-06-10T05:54:38;9.20;;;8.30;;
9007;SDS011;62813;51.424;6.762;2023-06-10T05:57:05;9.60;;;8.60;;
9007;SDS011;62813;51.424;6.762;2023-06-10T05:59:32;9.43;;;8.40;;
9007;SDS011;62813;51.424;6.762;2023-06-10T06:01:58;9.00;;;8.10;;
9007;SDS011;62813;51.424;6.762;2023-06-10T06:04:25;11.37;;;8.43;;
9007;SDS011;62813;51.424;6.762;2023-06-10T06:06:52;10.57;;;8.27;;
9007;SDS011;62813;51.424;6.762;2023-06-10T06:09:18;8.33;;;6.97;;
9007;SDS011;62813;51.424;6.762;2023-06-10T06:11:45;11.60;;;8.13;;
9007;SDS011;62813;51.424;6.762;2023-06-10T06:14:11;12.63;;;9.50;;
9007;SDS011;62813;51.424;6.762;2023-06-10T06:16:38;12.27;;;9.87;;
9007;SDS011;62813;51.424;6.762;2023-06-10T06:19:05;10.23;;;7.90;;
9007;SDS011;62813;51.424;6.762;2023-06-10T06:21:32;10.30;;;7.77;;
9007;SDS011;62813;51.424;6.762;2023-06-10T06:23:59;10.93;;;7.07;;
9007;SDS011;62813;51.424;6.762;2023-06-10T06:26:26;9.60;;;8.60;;
9007;SDS011;62813;51.424;6.762;2023-06-10T06:28:53;7.73;;;7.00;;
9007;SDS011;62813;51.424;6.762;2023-06-10T06:31:19;10.20;;;7.73;;
9007;SDS011;62813;51.424;6.762;2023-06-10T06:33:46;10.03;;;7.77;;
9007;SDS011;62813;51.424;6.762;2023-06-10T06:36:13;14.17;;;7.63;;
9007;SDS011;62813;51.424;6.762;2023-06-10T06:38:39;9.13;;;7.77;;
9007;SDS011;62813;51.424;6.762;2023-06-10T06:41:06;12.80;;;7.67;;
9007;SDS011;62813;51.424;6.762;2023-06-10T06:43:32;8.80;;;7.00;;
9007;SDS011;62813;51.424;6.762;2023-06-10T06:45:59;8.50;;;7.27;;
9007;SDS011;62813;51.424;6.762;2023-06-10T06:48:26;7.17;;;6.20;;
9007;SDS011;62813;51.424;6.762;2023-06-10T06:50:52;8.00;;;7.20;;
9007;SDS011;62813;51.424;6.762;2023-06-10T06:53:19;7.63;;;6.93;;
9007;SDS011;62813;51.424;6.762;2023-06-10T06:55:46;8.40;;;7.00;;
9007;SDS011;62813;51.424;6.762;2023-06-10T06:58:12;8.33;;;6.80;;
9007;SDS011;62813;51.424;6.762;2023-06-10T07:00:39;7.67;;;6.87;;
9007;SDS011;62813;51.424;6.762;2023-06-10T07:03:05;12.30;;;6.70;;
9007;SDS011;62813;51.424;6.762;2023-06-10T07:05:32;11.50;;;6.60;;
9007;SDS011;62813;51.424;6.762;2023-06-10T07:07:59;10.20;;;6.20;;
9007;SDS011;62813;51.424;6.762;2023-06-10T07:10:26;9.90;;;6.83;;
9007;SDS011;62813;51.424;6.762;2023-06-10T07:12:53;6.73;;;6.03;;
9007;SDS011;62813;51.424;6.762;2023-06-10T07:15:19;8.83;;;6.40;;
9007;SDS011;62813;51.424;6.762;2023-06-10T07:17:47;8.43;;;6.73;;
9007;SDS011;62813;51.424;6.762;2023-06-10T07:20:14;8.57;;;5.83;;
9007;SDS011;62813;51.424;6.762;2023-06-10T07:22:41;12.17;;;6.10;;
9007;SDS011;62813;51.424;6.762;2023-06-10T07:25:08;9.60;;;6.23;;
9007;SDS011;62813;51.424;6.762;2023-06-10T07:27:35;9.60;;;6.60;;
9007;SDS011;62813;51.424;6.762;2023-06-10T07:30:04;7.40;;;5.70;;
9007;SDS011;62813;51.424;6.762;2023-06-10T07:32:32;9.80;;;6.43;;
9007;SDS011;62813;51.424;6.762;2023-06-10T07:34:59;7.70;;;6.40;;
9007;SDS011;62813;51.424;6.762;2023-06-10T07:37:25;7.20;;;6.17;;
9007;SDS011;62813;51.424;6.762;2023-06-10T07:39:52;9.47;;;6.30;;
9007;SDS011;62813;51.424;6.762;2023-06-10T07:42:19;7.20;;;6.17;;
9007;SDS011;62813;51.424;6.762;2023-06-10T07:44:45;8.80;;;6.00;;
9007;SDS011;62813;51.424;6.762;2023-06-10T07:47:12;9.87;;;6.37;;
9007;SDS011;62813;51.424;6.762;2023-06-10T07:49:38;9.80;;;6.07;;
9007;SDS011;62813;51.424;6.762;2023-06-10T07:52:06;7.03;;;6.17;;
9007;SDS011;62813;51.424;6.762;2023-06-10T07:54:32;7.47;;;5.97;;
9007;SDS011;62813;51.424;6.762;2023-06-10T07:56:59;10.80;;;6.10;;
9007;SDS011;62813;51.424;6.762;2023-06-10T07:59:26;7.73;;;5.90;;
9007;SDS011;62813;51.424;6.762;2023-06-10T08:01:53;7.63;;;5.97;;
9007;SDS011;62813;51.424;6.762;2023-06-10T08:04:19;8.17;;;5.97;;
9007;SDS011;62813;51.424;6.762;2023-06-10T08:06:46;7.10;;;5.83;;
9007;SDS011;62813;51.424;6.762;2023-06-10T08:09:13;8.50;;;6.50;;
9007;SDS011;62813;51.424;6.762;2023-06-10T08:11:40;7.30;;;5.73;;
9007;SDS011;62813;51.424;6.762;2023-06-10T08:14:06;9.57;;;5.90;;
9007;SDS011;62813;51.424;6.762;2023-06-10T08:16:33;7.07;;;5.70;;
9007;SDS011;62813;51.424;6.762;2023-06-10T08:18:59;7.07;;;6.37;;
9007;SDS011;62813;51.424;6.762;2023-06-10T08:21:26;7.60;;;6.13;;
9007;SDS011;62813;51.424;6.762;2023-06-10T08:23:54;7.37;;;6.17;;
9007;SDS011;62813;51.424;6.762;2023-06-10T08:26:22;6.27;;;5.57;;
9007;SDS011;62813;51.424;6.762;2023-06-10T08:28:48;6.53;;;5.53;;
9007;SDS011;62813;51.424;6.762;2023-06-10T08:31:15;6.73;;;6.03;;
9007;SDS011;62813;51.424;6.762;2023-06-10T08:33:42;8.87;;;6.00;;
9007;SDS011;62813;51.424;6.762;2023-06-10T08:36:08;8.57;;;5.80;;
9007;SDS011;62813;51.424;6.762;2023-06-10T08:38:35;8.03;;;5.93;;
9007;SDS011;62813;51.424;6.762;2023-06-10T08:41:02;9.53;;;6.50;;
9007;SDS011;62813;51.424;6.762;2023-06-10T08:45:59;8.10;;;5.50;;
9007;SDS011;62813;51.424;6.762;2023-06-10T08:48:26;6.63;;;6.03;;
9007;SDS011;62813;51.424;6.762;2023-06-10T08:50:56;8.00;;;6.20;;
9007;SDS011;62813;51.424;6.762;2023-06-10T08:53:23;8.73;;;6.13;;
9007;SDS011;62813;51.424;6.762;2023-06-10T08:55:50;7.13;;;6.43;;
9007;SDS011;62813;51.424;6.762;2023-06-10T08:58:20;9.40;;;6.10;;
9007;SDS011;62813;51.424;6.762;2023-06-10T09:00:54;6.93;;;5.73;;
9007;SDS011;62813;51.424;6.762;2023-06-10T09:03:24;7.30;;;6.20;;
9007;SDS011;62813;51.424;6.762;2023-06-10T09:05:57;7.10;;;6.07;;
9007;SDS011;62813;51.424;6.762;2023-06-10T09:08:24;6.30;;;5.60;;
9007;SDS011;62813;51.424;6.762;2023-06-10T09:10:50;7.10;;;6.40;;
9007;SDS011;62813;51.424;6.762;2023-06-10T09:13:17;8.10;;;6.13;;
9007;SDS011;62813;51.424;6.762;2023-06-10T09:15:45;7.30;;;6.60;;
9007;SDS011;62813;51.424;6.762;2023-06-10T09:18:12;8.30;;;5.87;;
9007;SDS011;62813;51.424;6.762;2023-06-10T09:20:39;9.97;;;6.63;;
9007;SDS011;62813;51.424;6.762;2023-06-10T09:23:06;8.17;;;6.27;;
9007;SDS011;62813;51.424;6.762;2023-06-10T09:25:37;9.47;;;6.60;;
9007;SDS011;62813;51.424;6.762;2023-06-10T09:28:04;11.03;;;6.33;;
9007;SDS011;62813;51.424;6.762;2023-06-10T09:32:58;11.43;;;6.63;;
9007;SDS011;62813;51.424;6.762;2023-06-10T09:35:26;7.47;;;6.53;;
9007;SDS011;62813;51.424;6.762;2023-06-10T09:37:53;11.33;;;6.13;;
9007;SDS011;62813;51.424;6.762;2023-06-10T09:40:22;10.47;;;6.50;;
9007;SDS011;62813;51.424;6.762;2023-06-10T09:42:53;9.20;;;6.63;;
9007;SDS011;62813;51.424;6.762;2023-06-10T09:45:21;7.67;;;6.50;;
9007;SDS011;62813;51.424;6.762;2023-06-10T09:47:51;10.27;;;6.57;;
9007;SDS011;62813;51.424;6.762;2023-06-10T09:50:18;7.67;;;6.23;;
9007;SDS011;62813;51.424;6.762;2023-06-10T09:52:45;7.33;;;6.40;;
9007;SDS011;62813;51.424;6.762;2023-06-10T09:55:12;8.33;;;7.03;;
9007;SDS011;62813;51.424;6.762;2023-06-10T09:57:38;9.90;;;6.50;;
9007;SDS011;62813;51.424;6.762;2023-06-10T10:00:08;9.57;;;6.87;;
9007;SDS011;62813;51.424;6.762;2023-06-10T10:02:51;10.10;;;6.87;;
9007;SDS011;62813;51.424;6.762;2023-06-10T10:05:19;8.70;;;6.60;;
9007;SDS011;62813;51.424;6.762;2023-06-10T10:07:46;12.00;;;7.03;;
9007;SDS011;62813;51.424;6.762;2023-06-10T10:10:13;8.50;;;6.30;;
9007;SDS011;62813;51.424;6.762;2023-06-10T10:12:41;12.93;;;7.27;;
9007;SDS011;62813;51.424;6.762;2023-06-10T10:15:09;7.67;;;6.93;;
9007;SDS011;62813;51.424;6.762;2023-06-10T10:17:37;8.33;;;6.60;;
9007;SDS011;62813;51.424;6.762;2023-06-10T10:20:05;9.83;;;6.83;;
9007;SDS011;62813;51.424;6.762;2023-06-10T10:22:40;10.43;;;6.90;;
9007;SDS011;62813;51.424;6.762;2023-06-10T10:25:10;8.30;;;6.33;;
9007;SDS011;62813;51.424;6.762;2023-06-10T10:27:40;9.10;;;6.70;;
9007;SDS011;62813;51.424;6.762;2023-06-10T10:30:09;11.57;;;6.77;;
9007;SDS011;62813;51.424;6.762;2023-06-10T10:32:59;9.53;;;6.77;;
9007;SDS011;62813;51.424;6.762;2023-06-10T10:35:28;9.53;;;6.93;;
9007;SDS011;62813;51.424;6.762;2023-06-10T10:37:57;9.17;;;7.10;;
9007;SDS011;62813;51.424;6.762;2023-06-10T10:40:24;7.43;;;6.43;;
9007;SDS011;62813;51.424;6.762;2023-06-10T10:42:51;7.83;;;6.60;;
9007;SDS011;62813;51.424;6.762;2023-06-10T10:45:19;10.50;;;6.83;;
9007;SDS011;62813;51.424;6.762;2023-06-10T10:47:51;8.87;;;6.73;;
9007;SDS011;62813;51.424;6.762;2023-06-10T10:50:19;8.47;;;6.73;;
9007;SDS011;62813;51.424;6.762;2023-06-10T10:52:48;9.07;;;7.07;;
9007;SDS011;62813;51.424;6.762;2023-06-10T10:55:17;8.27;;;6.20;;
9007;SDS011;62813;51.424;6.762;2023-06-10T10:57:44;10.73;;;7.20;;
9007;SDS011;62813;51.424;6.762;2023-06-10T11:00:11;12.00;;;7.30;;
9007;SDS011;62813;51.424;6.762;2023-06-10T11:02:45;9.93;;;7.20;;
9007;SDS011;62813;51.424;6.762;2023-06-10T11:05:14;10.13;;;7.00;;
9007;SDS011;62813;51.424;6.762;2023-06-10T11:07:51;7.40;;;6.70;;
9007;SDS011;62813;51.424;6.762;2023-06-10T11:10:19;13.00;;;7.00;;
9007;SDS011;62813;51.424;6.762;2023-06-10T11:12:54;8.00;;;7.20;;
9007;SDS011;62813;51.424;6.762;2023-06-10T11:15:25;8.30;;;6.80;;
9007;SDS011;62813;51.424;6.762;2023-06-10T11:23:10;7.37;;;6.67;;
9007;SDS011;62813;51.424;6.762;2023-06-10T11:25:39;10.10;;;6.53;;
9007;SDS011;62813;51.424;6.762;2023-06-10T11:28:19;8.97;;;6.70;;
9007;SDS011;62813;51.424;6.762;2023-06-10T11:30:46;7.50;;;6.80;;
9007;SDS011;62813;51.424;6.762;2023-06-10T11:33:14;8.07;;;7.10;;
9007;SDS011;62813;51.424;6.762;2023-06-10T11:35:42;9.03;;;6.77;;
9007;SDS011;62813;51.424;6.762;2023-06-10T11:38:09;7.83;;;6.83;;
9007;SDS011;62813;51.424;6.762;2023-06-10T11:40:36;9.97;;;6.80;;
9007;SDS011;62813;51.424;6.762;2023-06-10T11:43:04;8.00;;;7.22;;
9007;SDS011;62813;51.424;6.762;2023-06-10T11:45:30;10.27;;;7.17;;
9007;SDS011;62813;51.424;6.762;2023-06-10T11:47:57;8.97;;;6.50;;
9007;SDS011;62813;51.424;6.762;2023-06-10T11:50:33;7.30;;;6.43;;
9007;SDS011;62813;51.424;6.762;2023-06-10T11:53:02;8.83;;;6.60;;
9007;SDS011;62813;51.424;6.762;2023-06-10T11:55:42;8.63;;;7.20;;
9007;SDS011;62813;51.424;6.762;2023-06-10T11:58:19;11.33;;;6.90;;
9007;SDS011;62813;51.424;6.762;2023-06-10T12:03:13;7.95;;;7.10;;
9007;SDS011;62813;51.424;6.762;2023-06-10T12:05:42;8.70;;;6.63;;
9007;SDS011;62813;51.424;6.762;2023-06-10T12:08:19;7.60;;;6.85;;
9007;SDS011;62813;51.424;6.762;2023-06-10T12:10:46;9.90;;;6.83;;
9007;SDS011;62813;51.424;6.762;2023-06-10T12:13:13;9.93;;;7.00;;
9007;SDS011;62813;51.424;6.762;2023-06-10T12:15:39;7.77;;;7.07;;
9007;SDS011;62813;51.424;6.762;2023-06-10T12:18:06;7.67;;;6.87;;
9007;SDS011;62813;51.424;6.762;2023-06-10T12:20:32;7.35;;;6.50;;
9007;SDS011;62813;51.424;6.762;2023-06-10T12:23:00;7.60;;;6.90;;
9007;SDS011;62813;51.424;6.762;2023-06-10T12:25:28;7.90;;;7.07;;
9007;SDS011;62813;51.424;6.762;2023-06-10T12:27:58;8.37;;;6.80;;
9007;SDS011;62813;51.424;6.762;2023-06-10T12:30:25;6.88;;;6.28;;
9007;SDS011;62813;51.424;6.762;2023-06-10T12:32:53;7.10;;;6.47;;
9007;SDS011;62813;51.424;6.762;2023-06-10T12:35:20;9.63;;;7.15;;
9007;SDS011;62813;51.424;6.762;2023-06-10T12:37:55;8.85;;;7.22;;
9007;SDS011;62813;51.424;6.762;2023-06-10T12:40:26;7.40;;;6.70;;
9007;SDS011;62813;51.424;6.762;2023-06-10T12:42:54;12.13;;;7.60;;
9007;SDS011;62813;51.424;6.762;2023-06-10T12:45:30;8.30;;;6.82;;
9007;SDS011;62813;51.424;6.762;2023-06-10T12:48:04;7.65;;;6.97;;
9007;SDS011;62813;51.424;6.762;2023-06-10T12:50:31;7.82;;;7.13;;
9007;SDS011;62813;51.424;6.762;2023-06-10T12:52:59;9.68;;;7.05;;
9007;SDS011;62813;51.424;6.762;2023-06-10T12:55:25;8.10;;;7.30;;
9007;SDS011;62813;51.424;6.762;2023-06-10T12:57:52;8.30;;;7.50;;
9007;SDS011;62813;51.424;6.762;2023-06-10T13:00:19;8.00;;;7.32;;
9007;SDS011;62813;51.424;6.762;2023-06-10T13:02:48;8.32;;;6.80;;
9007;SDS011;62813;51.424;6.762;2023-06-10T13:05:15;9.27;;;8.02;;
9007;SDS011;62813;51.424;6.762;2023-06-10T13:07:43;12.18;;;8.00;;
9007;SDS011;62813;51.424;6.762;2023-06-10T13:10:15;7.85;;;7.05;;
9007;SDS011;62813;51.424;6.762;2023-06-10T13:12:42;8.68;;;7.78;;
9007;SDS011;62813;51.424;6.762;2023-06-10T13:15:14;8.38;;;7.13;;
9007;SDS011;62813;51.424;6.762;2023-06-10T13:17:41;11.93;;;7.57;;
9007;SDS011;62813;51.424;6.762;2023-06-10T13:20:08;10.93;;;7.38;;
9007;SDS011;62813;51.424;6.762;2023-06-10T13:22:35;9.57;;;7.10;;
9007;SDS011;62813;51.424;6.762;2023-06-10T13:25:03;9.07;;;7.68;;
9007;SDS011;62813;51.424;6.762;2023-06-10T13:27:30;8.05;;;7.30;;
9007;SDS011;62813;51.424;6.762;2023-06-10T13:29:57;9.38;;;8.38;;
9007;SDS011;62813;51.424;6.762;2023-06-10T13:32:23;9.45;;;7.13;;
9007;SDS011;62813;51.424;6.762;2023-06-10T13:34:50;8.45;;;7.55;;
9007;SDS011;62813;51.424;6.762;2023-06-10T13:37:17;7.50;;;6.80;;
9007;SDS011;62813;51.424;6.762;2023-06-10T13:39:46;12.98;;;7.53;;
9007;SDS011;62813;51.424;6.762;2023-06-10T13:42:17;8.80;;;7.97;;
9007;SDS011;62813;51.424;6.762;2023-06-10T13:44:44;7.60;;;7.00;;
9007;SDS011;62813;51.424;6.762;2023-06-10T13:47:10;8.80;;;7.90;;
9007;SDS011;62813;51.424;6.762;2023-06-10T13:49:37;7.95;;;7.07;;
9007;SDS011;62813;51.424;6.762;2023-06-10T13:52:04;8.73;;;7.90;;
9007;SDS011;62813;51.424;6.762;2023-06-10T13:54:31;8.73;;;7.60;;
9007;SDS011;62813;51.424;6.762;2023-06-10T13:56:57;10.32;;;7.05;;
9007;SDS011;62813;51.424;6.762;2023-06-10T13:59:24;9.63;;;7.30;;
9007;SDS011;62813;51.424;6.762;2023-06-10T14:01:51;16.00;;;9.63;;
9007;SDS011;62813;51.424;6.762;2023-06-10T14:04:17;16.20;;;8.10;;
9007;SDS011;62813;51.424;6.762;2023-06-10T14:06:44;11.25;;;7.45;;
9007;SDS011;62813;51.424;6.762;2023-06-10T14:09:15;8.60;;;7.75;;
9007;SDS011;62813;51.424;6.762;2023-06-10T14:11:42;7.70;;;7.00;;
9007;SDS011;62813;51.424;6.762;2023-06-10T14:14:09;9.93;;;8.18;;
9007;SDS011;62813;51.424;6.762;2023-06-10T14:16:36;11.65;;;7.22;;
9007;SDS011;62813;51.424;6.762;2023-06-10T14:19:06;8.27;;;7.00;;
9007;SDS011;62813;51.424;6.762;2023-06-10T14:21:34;7.97;;;7.20;;
9007;SDS011;62813;51.424;6.762;2023-06-10T14:24:01;8.82;;;7.43;;
9007;SDS011;62813;51.424;6.762;2023-06-10T14:26:29;11.40;;;8.27;;
9007;SDS011;62813;51.424;6.762;2023-06-10T14:28:57;8.93;;;7.50;;
9007;SDS011;62813;51.424;6.762;2023-06-10T14:31:24;7.97;;;7.25;;
9007;SDS011;62813;51.424;6.762;2023-06-10T14:33:50;7.45;;;6.75;;
9007;SDS011;62813;51.424;6.762;2023-06-10T14:36:18;8.35;;;7.55;;
9007;SDS011;62813;51.424;6.762;2023-06-10T14:38:45;8.60;;;7.35;;
9007;SDS011;62813;51.424;6.762;2023-06-10T14:41:12;8.60;;;7.28;;
9007;SDS011;62813;51.424;6.762;2023-06-10T14:43:39;8.18;;;7.07;;
9007;SDS011;62813;51.424;6.762;2023-06-10T14:46:05;8.65;;;7.85;;
9007;SDS011;62813;51.424;6.762;2023-06-10T14:48:32;9.73;;;6.75;;
9007;SDS011;62813;51.424;6.762;2023-06-10T14:50:59;8.85;;;7.90;;
9007;SDS011;62813;51.424;6.762;2023-06-10T14:53:25;9.48;;;6.93;;
9007;SDS011;62813;51.424;6.762;2023-06-10T14:55:52;8.55;;;7.85;;
9007;SDS011;62813;51.424;6.762;2023-06-10T14:58:18;8.00;;;7.07;;
9007;SDS011;62813;51.424;6.762;2023-06-10T15:00:45;9.32;;;6.72;;
9007;SDS011;62813;51.424;6.762;2023-06-10T15:03:11;8.57;;;7.13;;
9007;SDS011;62813;51.424;6.762;2023-06-10T15:05:38;10.07;;;7.53;;
9007;SDS011;62813;51.424;6.762;2023-06-10T15:08:05;8.55;;;7.70;;
9007;SDS011;62813;51.424;6.762;2023-06-10T15:10:31;10.43;;;7.53;;
9007;SDS011;62813;51.424;6.762;2023-06-10T15:12:58;8.57;;;7.68;;